Latest Coastal Weather Observations for Middle Percy Island

IDQ60701

Issued at 12:02 am EST Friday 1 July 2016 (issued every 10 minutes, with the page automatically refreshed every 10 minutes)

About coastal observations | Map of coastal stations | Coastal observations for QLD | Marine services | Other Formats
Station Details ID: 200001 Name: MIDDLE PERCY ISLAND Lat: -21.66 Lon: 150.27 Height: 208.7 m
Data from the previous 72 hours. | See also: Recent months at Middle Percy Island
Date/Time
EST
Temp
°C
Wind Pressure Rain since
9am
mm
Weather Cloud Vis
km
Sea
Height
m
Swell
Dir  Spd
kts
Gust
kts
hPa Trend Height
m
Period
s
Dir
01/12:00am 20.3 NE 7 9 1020.1 - 0.0 - - - - - - -
 
Date/Time
EST
Temp
°C
Wind Pressure Rain since
9am
mm
Weather Cloud Vis
km
Sea
Height
m
Swell
Dir  Spd
kts
Gust
kts
hPa Trend Height
m
Period
s
Dir
30/11:30pm 20.0 NE 8 12 1020.3 - 0.0 - - - - - - -
30/11:00pm 19.9 ENE 6 10 1020.6 - 0.0 - - - - - - -
30/10:30pm 20.0 ENE 7 10 1020.7 - 0.0 - - - - - - -
30/10:00pm 20.0 E 7 10 1020.9 - 0.0 - - - - - - -
30/09:30pm 19.9 E 8 10 1021.1 - 0.0 - - - - - - -
30/09:00pm 19.8 E 6 10 1021.2 - 0.0 - - - - - - -
30/08:30pm 19.5 E 5 7 1021.3 - 0.0 - - - - - - -
30/08:00pm 19.7 E 5 6 1021.3 - 0.0 - - - - - - -
30/07:30pm 19.8 ESE 6 9 1021.1 - 0.0 - - - - - - -
30/07:00pm 19.6 E 5 7 1020.8 - 0.0 - - - - - - -
30/06:30pm 19.3 ESE 5 8 1020.4 - 0.0 - - - - - - -
30/06:00pm 19.4 ESE 6 8 1020.1 - 0.0 - - - - - - -
30/05:30pm 19.3 ESE 5 7 1020.0 - 0.0 - - - - - - -
30/05:00pm 19.9 ESE 6 8 1019.9 - 0.0 - - - - - - -
30/04:30pm 20.4 SE 4 7 1019.6 - 0.0 - - - - - - -
30/04:00pm 20.7 SSE 8 11 1019.4 - 0.0 - - - - - - -
30/03:30pm 20.8 S 7 9 1019.3 - 0.0 - - - - - - -
30/03:00pm 20.7 S 7 10 1019.3 - 0.0 - - - - - - -
30/02:30pm 20.5 S 7 9 1019.3 - 0.0 - - - - - - -
30/02:00pm 20.2 SSW 7 10 1019.4 - 0.0 - - - - - - -
30/01:30pm 20.2 S 10 13 1019.5 - 0.0 - - - - - - -
30/01:00pm 22.5 S 7 10 1019.9 - 0.0 - - - - - - -
30/12:30pm 23.1 NE 7 12 1020.3 - 0.0 - - - - - - -
30/12:00pm 23.4 NE 7 11 1020.8 - 0.0 - - - - - - -
30/11:30am 23.1 NE 6 11 1021.0 - 0.0 - - - - - - -
30/11:00am 22.9 NE 9 13 1021.4 - 0.0 - - - - - - -
30/10:30am 22.4 NE 7 11 1021.9 - 0.0 - - - - - - -
30/10:00am 21.2 NE 7 11 1022.0 - 0.0 - - - - - - -
30/09:30am 21.9 ENE 7 12 1022.1 - 0.0 - - - - - - -
30/09:00am 21.8 NE 8 12 1022.1 - 0.0 - - - - - - -
30/08:30am 21.2 ENE 9 15 1022.0 - 0.0 - - - - - - -
30/08:00am 19.9 ESE 5 9 1021.7 - 0.0 - - - - - - -
30/07:30am 18.9 SE 9 13 1021.5 - 0.0 - - - - - - -
30/07:00am 18.8 SE 11 15 1021.3 - 0.0 - - - - - - -
30/06:30am 19.0 SE 13 18 1021.0 - 0.0 - - - - - - -
30/06:00am 18.9 SE 12 17 1020.7 - 0.0 - - - - - - -
30/05:30am 19.1 SE 13 18 1020.7 - 0.0 - - - - - - -
30/05:00am 19.1 SE 13 20 1020.6 - 0.0 - - - - - - -
30/04:30am 18.9 SE 11 15 1020.7 - 0.0 - - - - - - -
30/04:00am 18.5 SSE 8 13 1020.7 - 0.0 - - - - - - -
30/03:30am 18.2 SE 9 14 1020.8 - 0.0 - - - - - - -
30/03:00am 18.3 SE 9 13 1021.0 - 0.0 - - - - - - -
30/02:30am 18.4 ESE 11 14 1021.4 - 0.0 - - - - - - -
30/02:00am 18.3 SE 11 16 1021.8 - 0.0 - - - - - - -
30/01:30am 18.4 ESE 12 17 1022.0 - 0.0 - - - - - - -
30/01:00am 18.6 ESE 12 17 1022.3 - 0.0 - - - - - - -
30/12:30am 18.3 SE 8 12 1022.6 - 0.0 - - - - - - -
30/12:00am 18.1 SE 11 17 1022.7 - 0.0 - - - - - - -
 
Date/Time
EST
Temp
°C
Wind Pressure Rain since
9am
mm
Weather Cloud Vis
km
Sea
Height
m
Swell
Dir  Spd
kts
Gust
kts
hPa Trend Height
m
Period
s
Dir
29/11:30pm 18.5 SE 10 15 1022.8 - 0.0 - - - - - - -
29/11:00pm 18.6 SE 12 17 1023.2 - 0.0 - - - - - - -
29/10:30pm 18.3 SE 11 17 1023.4 - 0.0 - - - - - - -
29/10:00pm 18.3 ESE 14 21 1023.7 - 0.0 - - - - - - -
29/09:30pm 18.2 SE 13 17 1023.5 - 0.0 - - - - - - -
29/09:00pm 18.1 SE 12 18 1023.4 - 0.0 - - - - - - -
29/08:30pm 17.9 SE 13 18 1023.4 - 0.0 - - - - - - -
29/08:00pm 17.6 SE 12 17 1023.4 - 0.0 - - - - - - -
29/07:30pm 17.7 SE 13 19 1023.4 - 0.0 - - - - - - -
29/07:00pm 17.4 SE 12 18 1023.3 - 0.0 - - - - - - -
29/06:30pm 17.3 SE 13 19 1023.1 - 0.0 - - - - - - -
29/06:00pm 16.9 SSE 13 19 1022.7 - 0.0 - - - - - - -
29/05:30pm 16.9 SE 14 20 1022.5 - 0.0 - - - - - - -
29/05:00pm 16.9 SSE 13 19 1022.3 - 0.0 - - - - - - -
29/04:30pm 17.1 SSE 15 20 1022.1 - 0.0 - - - - - - -
29/04:00pm 17.3 SSE 15 21 1021.9 - 0.0 - - - - - - -
29/03:30pm 17.5 SSE 15 21 1021.7 - 0.0 - - - - - - -
29/03:00pm 17.6 SSE 16 22 1021.6 - 0.0 - - - - - - -
29/02:30pm 18.3 SSE 15 22 1021.5 - 0.0 - - - - - - -
29/02:00pm 18.3 SSE 15 21 1021.7 - 0.0 - - - - - - -
29/01:30pm 18.3 SSE 15 21 1021.8 - 0.0 - - - - - - -
29/01:00pm 18.5 SSE 15 21 1022.1 - 0.0 - - - - - - -
29/12:30pm 18.2 SSE 16 24 1022.3 - 0.0 - - - - - - -
29/12:00pm 18.0 SSE 18 24 1022.9 - 0.0 - - - - - - -
29/11:30am 18.5 SSE 16 22 1023.3 - 0.0 - - - - - - -
29/11:00am 17.7 SSE 16 23 1023.7 - 0.0 - - - - - - -
29/10:30am 17.6 SSE 15 20 1024.0 - 0.0 - - - - - - -
29/10:00am 17.1 SSE 16 20 1024.1 - 0.0 - - - - - - -
29/09:30am 16.5 SSE 16 21 1024.1 - 0.0 - - - - - - -
29/09:00am 16.1 SSE 18 21 1024.2 - 0.0 - - - - - - -
29/08:30am 15.8 S 15 23 1024.2 - 0.0 - - - - - - -
29/08:00am 15.2 SSE 15 21 1024.0 - 0.0 - - - - - - -
29/07:30am 14.8 SSE 15 20 1023.8 - 0.0 - - - - - - -
29/07:00am 14.5 SSE 15 20 1023.7 - 0.0 - - - - - - -
29/06:30am 14.4 SSE 15 20 1023.4 - 0.0 - - - - - - -
29/06:00am 14.4 SSE 14 19 1023.1 - 0.0 - - - - - - -
29/05:30am 14.4 SSE 14 19 1022.9 - 0.0 - - - - - - -
29/05:00am 14.6 SSE 15 19 1022.8 - 0.0 - - - - - - -
29/04:30am 14.6 SSE 13 18 1022.9 - 0.0 - - - - - - -
29/04:00am 14.5 SSE 14 18 1023.0 - 0.0 - - - - - - -
29/03:30am 14.4 SSE 13 17 1022.9 - 0.0 - - - - - - -
29/03:00am 14.4 SSE 13 20 1022.9 - 0.0 - - - - - - -
29/02:30am 14.7 SSE 15 22 1023.1 - 0.0 - - - - - - -
29/02:00am 14.7 SSE 14 19 1023.2 - 0.0 - - - - - - -
29/01:30am 14.4 SSE 13 17 1023.4 - 0.0 - - - - - - -
29/01:00am 14.8 SSE 15 18 1023.7 - 0.0 - - - - - - -
29/12:30am 15.1 SSE 14 20 1023.6 - 0.0 - - - - - - -
29/12:00am 15.2 S 15 19 1023.6 - 0.0 - - - - - - -
 
Date/Time
EST
Temp
°C
Wind Pressure Rain since
9am
mm
Weather Cloud Vis
km
Sea
Height
m
Swell
Dir  Spd
kts
Gust
kts
hPa Trend Height
m
Period
s
Dir
28/11:30pm 15.0 S 16 21 1023.6 - 0.0 - - - - - - -
28/11:00pm 15.1 SSE 14 22 1023.8 - 0.0 - - - - - - -
28/10:30pm 15.1 S 16 22 1023.4 - 0.0 - - - - - - -
28/10:00pm 14.9 S 16 22 1023.5 - 0.0 - - - - - - -
28/09:30pm 15.1 S 16 22 1023.5 - 0.0 - - - - - - -
28/09:00pm 15.1 S 14 19 1023.5 - 0.0 - - - - - - -
28/08:30pm 15.1 S 13 17 1023.7 - 0.0 - - - - - - -
28/08:00pm 15.1 S 12 15 1023.6 - 0.0 - - - - - - -
28/07:30pm 15.4 S 16 22 1023.3 - 0.0 - - - - - - -
28/07:00pm 15.0 S 13 17 1023.1 - 0.0 - - - - - - -
28/06:30pm 14.7 S 13 17 1022.8 - 0.0 - - - - - - -
28/06:00pm 14.7 S 13 16 1022.2 - 0.0 - - - - - - -
28/05:30pm 14.7 S 13 17 1021.7 - 0.0 - - - - - - -
28/05:00pm 14.9 S 14 18 1021.3 - 0.0 - - - - - - -
28/04:30pm 15.0 S 14 19 1020.9 - 0.0 - - - - - - -
28/04:00pm 15.0 S 13 17 1020.9 - 0.0 - - - - - - -
28/03:30pm 15.1 S 14 20 1020.6 - 0.0 - - - - - - -
28/03:00pm 15.2 S 14 18 1020.6 - 0.0 - - - - - - -
28/02:30pm 15.0 S 17 24 1020.6 - 0.0 - - - - - - -
28/02:00pm 14.8 S 15 20 1020.4 - 0.0 - - - - - - -
28/01:30pm 14.4 S 16 21 1020.4 - 0.0 - - - - - - -
28/01:00pm 14.0 S 16 20 1020.9 - 0.0 - - - - - - -
28/12:30pm 13.9 S 17 22 1021.1 - 0.0 - - - - - - -
28/12:00pm 13.3 S 19 25 1021.3 - 0.0 - - - - - - -
28/11:30am 13.2 SSW 19 24 1021.6 - 0.0 - - - - - - -
28/11:00am 12.9 S 19 25 1021.9 - 0.0 - - - - - - -
28/10:30am 13.1 S 20 26 1022.0 - 0.0 - - - - - - -
28/10:00am 12.6 S 21 26 1022.2 - 0.0 - - - - - - -
28/09:30am 12.6 S 21 27 1022.2 - 0.0 - - - - - - -
28/09:00am 12.5 S 20 27 1022.0 - 0.0 - - - - - - -
28/08:30am 12.3 S 20 28 1021.9 - 0.0 - - - - - - -
28/08:04am 12.2 S 19 30 1021.8 - 0.0 - - - - - - -
28/08:00am 12.2 S 20 27 1021.9 - 0.0 - - - - - - -
28/07:30am 12.2 S 23 30 1021.4 - 0.0 - - - - - - -
28/07:00am 12.4 S 23 30 1020.9 - 0.0 - - - - - - -
28/06:30am 12.4 S 21 29 1020.6 - 0.0 - - - - - - -
28/06:00am 12.9 S 21 27 1020.1 - 0.0 - - - - - - -
28/05:30am 13.3 S 22 30 1019.5 - 0.0 - - - - - - -
28/05:09am 13.6 S 21 31 1019.3 - 0.0 - - - - - - -
28/05:00am 13.7 S 22 30 1019.2 - 0.0 - - - - - - -
28/04:30am 14.2 S 22 29 1019.0 - 0.0 - - - - - - -
28/04:00am 14.8 S 21 28 1018.8 - 0.0 - - - - - - -
28/03:30am 15.3 S 20 28 1018.7 - 0.0 - - - - - - -
28/03:00am 15.8 S 21 28 1018.6 - 0.0 - - - - - - -
28/02:30am 16.4 S 20 27 1018.5 - 0.0 - - - - - - -
28/02:00am 16.9 S 19 26 1018.5 - 0.0 - - - - - - -
28/01:30am 17.4 S 19 27 1018.4 - 0.0 - - - - - - -
28/01:00am 17.7 S 19 25 1018.5 - 0.0 - - - - - - -
28/12:45am 18.3 S 18 30 1018.4 - 0.0 - - - - - - -
28/12:30am 18.6 S 18 24 1018.2 - 0.0 - - - - - - -

Other Formats:

Comma delimited format used in spreadsheet applications
http://www.bom.gov.au/fwo/IDQ60701/IDQ60701.94372.axf

JavaScript Object Notation format (JSON) in row-major order
http://www.bom.gov.au/fwo/IDQ60701/IDQ60701.94372.json